Time;durP1;ratioP1;P1;durP2;ratioP2;P2;SDS_P1;SDS_P2;PMS_P1;PMS_P2;Temp;Humidity;BMP_temperature;BMP_pressure;BME280_temperature;BME280_humidity;BME280_pressure;Samples;Min_cycle;Max_cycle;Signal;HPM_P1;HPM_P2
2022/06/04 00:00:50;;;;;;;8.03;7.33;;;17.30;99.90;;;;;;5034442;28;20231;-76
2022/06/04 00:03:17;;;;;;;8.00;7.30;;;17.30;99.90;;;;;;5034183;28;20182;-76
2022/06/04 00:05:45;;;;;;;8.20;7.50;;;17.20;99.90;;;;;;5016595;28;20222;-76
2022/06/04 00:08:11;;;;;;;8.00;7.30;;;17.20;99.90;;;;;;5034183;28;20174;-76
2022/06/04 00:16:25;;;;;;;8.03;7.33;;;17.20;99.90;;;;;;5035622;28;20209;-76
2022/06/04 00:18:51;;;;;;;8.30;7.60;;;17.20;99.90;;;;;;5034141;28;20254;-76
2022/06/04 00:21:17;;;;;;;8.13;7.50;;;17.20;99.90;;;;;;5017546;28;20191;-76
2022/06/04 00:23:42;;;;;;;8.57;7.70;;;17.30;99.90;;;;;;5017621;28;20178;-76
2022/06/04 00:26:13;;;;;;;8.47;7.77;;;17.30;99.90;;;;;;5017584;28;20229;-76
2022/06/04 00:28:38;;;;;;;8.63;7.37;;;17.20;99.90;;;;;;5017691;28;20672;-76
2022/06/04 00:31:05;;;;;;;8.47;7.67;;;17.30;99.90;;;;;;5033909;28;20178;-76
2022/06/04 00:33:31;;;;;;;7.93;7.33;;;17.30;99.90;;;;;;5034793;28;20177;-76
2022/06/04 00:35:58;;;;;;;7.87;7.17;;;17.30;99.90;;;;;;5017135;28;20271;-76
2022/06/04 00:38:26;;;;;;;8.17;7.43;;;17.30;99.90;;;;;;5033719;28;20253;-76
2022/06/04 00:41:30;;;;;;;7.93;7.23;;;17.30;99.90;;;;;;5001170;28;20198;-76
2022/06/04 00:44:05;;;;;;;8.57;7.67;;;17.30;99.90;;;;;;5034902;28;20172;-76
2022/06/04 00:46:30;;;;;;;9.80;8.50;;;17.20;99.90;;;;;;5033651;28;20190;-76
2022/06/04 00:48:56;;;;;;;8.30;7.60;;;17.20;99.90;;;;;;5033505;28;20177;-76
2022/06/04 00:51:23;;;;;;;8.30;7.60;;;17.20;99.90;;;;;;5017147;28;20177;-76
2022/06/04 00:53:49;;;;;;;8.63;7.93;;;17.20;99.90;;;;;;5016762;28;20174;-76
2022/06/04 00:56:20;;;;;;;8.53;7.70;;;17.20;99.90;;;;;;5033405;28;20186;-76
2022/06/04 00:59:26;;;;;;;7.83;7.10;;;17.10;99.90;;;;;;5034893;28;20213;-76
2022/06/04 01:02:13;;;;;;;8.57;7.87;;;17.10;99.90;;;;;;5032830;28;20720;-75
2022/06/04 01:04:48;;;;;;;8.73;8.03;;;16.70;99.90;;;;;;5033013;28;20217;-76
2022/06/04 01:07:35;;;;;;;8.93;7.80;;;16.70;99.90;;;;;;5034400;28;20158;-76
2022/06/04 01:10:26;;;;;;;8.93;8.13;;;16.80;99.90;;;;;;5034205;28;20604;-76
2022/06/04 01:13:10;;;;;;;9.07;8.23;;;16.70;99.90;;;;;;5032890;28;20154;-76
2022/06/04 01:16:09;;;;;;;8.40;7.70;;;16.80;99.90;;;;;;5032966;28;20560;-76
2022/06/04 01:19:03;;;;;;;8.63;7.73;;;16.80;99.90;;;;;;5032792;28;20186;-76
2022/06/04 01:21:46;;;;;;;7.87;7.27;;;16.90;99.90;;;;;;5039801;28;20186;-76
2022/06/04 01:24:39;;;;;;;8.17;7.47;;;17.00;99.90;;;;;;5033991;28;20208;-76
2022/06/04 01:27:35;;;;;;;8.60;7.90;;;17.00;99.90;;;;;;5032849;28;20191;-76
2022/06/04 01:30:17;;;;;;;8.60;7.90;;;17.00;99.90;;;;;;5018771;28;20187;-76
2022/06/04 01:33:10;;;;;;;8.67;7.87;;;17.00;99.90;;;;;;5032797;28;20169;-76
2022/06/04 01:36:11;;;;;;;8.50;7.80;;;16.90;99.90;;;;;;5032492;28;20196;-76
2022/06/04 01:38:53;;;;;;;9.53;8.67;;;16.90;99.90;;;;;;5005525;28;20256;-76
2022/06/04 01:41:46;;;;;;;9.23;8.43;;;16.70;99.90;;;;;;5032227;28;20166;-76
2022/06/04 01:44:21;;;;;;;8.40;7.70;;;16.60;99.90;;;;;;5032555;28;20232;-76
2022/06/04 01:46:51;;;;;;;8.13;7.50;;;16.60;99.90;;;;;;4999931;28;20202;-76
2022/06/04 01:49:33;;;;;;;8.77;7.80;;;16.50;99.90;;;;;;5016483;28;20220;-76
2022/06/04 01:52:24;;;;;;;8.57;7.97;;;16.60;99.90;;;;;;5032064;28;20162;-76
2022/06/04 01:54:58;;;;;;;8.23;7.53;;;16.60;99.90;;;;;;5037841;28;20190;-76
2022/06/04 01:57:32;;;;;;;8.93;8.13;;;16.60;99.90;;;;;;5032256;28;20168;-76
2022/06/04 02:00:11;;;;;;;8.20;7.60;;;16.70;99.90;;;;;;5032457;28;20167;-76
2022/06/04 02:02:42;;;;;;;9.20;7.90;;;16.70;99.90;;;;;;5031970;28;20170;-76
2022/06/04 02:05:13;;;;;;;8.43;7.73;;;16.70;99.90;;;;;;5016371;28;20225;-76
2022/06/04 02:07:45;;;;;;;8.60;7.90;;;16.80;99.90;;;;;;5032184;28;20194;-76
2022/06/04 02:10:28;;;;;;;8.10;7.50;;;16.80;99.90;;;;;;5015507;28;20253;-76
2022/06/04 02:13:01;;;;;;;9.03;8.33;;;16.80;99.90;;;;;;5031745;28;20166;-76
2022/06/04 02:15:42;;;;;;;10.17;9.30;;;16.70;99.90;;;;;;5015258;28;20686;-76
2022/06/04 02:18:10;;;;;;;8.97;8.27;;;16.70;99.90;;;;;;5031688;28;20181;-76
2022/06/04 02:20:36;;;;;;;7.80;7.20;;;16.60;99.90;;;;;;5031654;28;20185;-76
2022/06/04 02:23:02;;;;;;;7.87;7.27;;;16.50;99.90;;;;;;5031695;28;20179;-76
2022/06/04 02:25:29;;;;;;;8.47;7.77;;;16.40;99.90;;;;;;5015308;28;20210;-76
2022/06/04 02:27:55;;;;;;;8.90;8.20;;;16.50;99.90;;;;;;5014820;28;20178;-76
2022/06/04 02:30:21;;;;;;;9.27;7.70;;;16.50;99.90;;;;;;5032799;28;20171;-76
2022/06/04 02:33:14;;;;;;;8.87;7.97;;;16.50;99.90;;;;;;5031541;28;20178;-76
2022/06/04 02:35:51;;;;;;;8.30;7.60;;;16.40;99.90;;;;;;5031370;28;20668;-76
2022/06/04 02:38:36;;;;;;;7.53;6.83;;;16.40;99.90;;;;;;5031431;28;20170;-76
2022/06/04 02:44:29;;;;;;;8.73;7.93;;;16.30;99.90;;;;;;5032635;28;20255;-76
2022/06/04 02:47:01;;;;;;;8.90;8.20;;;16.20;99.90;;;;;;5031170;28;20198;-76
2022/06/04 02:49:35;;;;;;;8.70;8.00;;;16.20;99.90;;;;;;5032468;28;20163;-76
2022/06/04 02:52:02;;;;;;;8.83;8.10;;;16.20;99.90;;;;;;5032367;28;20166;-76
2022/06/04 02:54:34;;;;;;;9.00;8.23;;;16.30;99.90;;;;;;5031184;28;20189;-76
2022/06/04 02:57:03;;;;;;;8.80;8.00;;;16.30;99.90;;;;;;5032323;28;20252;-76
2022/06/04 02:59:33;;;;;;;8.50;7.70;;;16.40;99.90;;;;;;5031153;28;20328;-76
2022/06/04 03:02:01;;;;;;;9.10;8.30;;;16.40;99.90;;;;;;5015139;28;20190;-76
2022/06/04 03:04:28;;;;;;;9.00;8.30;;;16.40;99.90;;;;;;5031374;28;20199;-76
2022/06/04 03:07:03;;;;;;;10.00;9.10;;;16.40;99.90;;;;;;5032385;28;20341;-76
2022/06/04 03:09:28;;;;;;;10.27;9.37;;;16.30;99.90;;;;;;5031474;28;20166;-76
2022/06/04 03:11:54;;;;;;;10.60;9.67;;;16.00;99.90;;;;;;5031156;28;20189;-76
2022/06/04 03:14:20;;;;;;;10.77;9.77;;;15.90;99.90;;;;;;5031274;28;20171;-76
2022/06/04 03:16:48;;;;;;;11.13;9.77;;;15.90;99.90;;;;;;5031284;28;20567;-76
2022/06/04 03:19:13;;;;;;;9.60;8.80;;;15.90;99.90;;;;;;5032294;28;20167;-76
2022/06/04 03:21:41;;;;;;;9.90;8.90;;;15.90;99.90;;;;;;4998226;28;20233;-76
2022/06/04 03:24:09;;;;;;;9.37;8.50;;;15.90;99.90;;;;;;5032050;28;20182;-76
2022/06/04 03:26:35;;;;;;;10.10;9.10;;;15.90;99.90;;;;;;5030866;28;20200;-76
2022/06/04 03:29:01;;;;;;;10.60;9.60;;;16.00;99.90;;;;;;5030898;28;20170;-76
2022/06/04 03:31:28;;;;;;;11.30;10.20;;;15.90;99.90;;;;;;5032130;28;20178;-76
2022/06/04 03:33:55;;;;;;;10.10;9.20;;;15.90;99.90;;;;;;5031070;28;20174;-76
2022/06/04 03:36:21;;;;;;;10.37;9.47;;;15.90;99.90;;;;;;5031159;28;20201;-76
2022/06/04 03:38:48;;;;;;;11.93;10.83;;;16.00;99.90;;;;;;5030944;28;20170;-76
2022/06/04 03:41:20;;;;;;;12.63;11.33;;;16.00;99.90;;;;;;5018141;28;20181;-76
2022/06/04 03:43:48;;;;;;;10.00;9.10;;;16.00;99.90;;;;;;5001595;28;20162;-76
2022/06/04 03:46:14;;;;;;;11.50;9.53;;;16.00;99.90;;;;;;5018459;28;20214;-76
2022/06/04 03:48:39;;;;;;;9.83;8.97;;;15.90;99.90;;;;;;5034368;28;20552;-76
2022/06/04 03:51:05;;;;;;;8.03;7.20;;;15.90;99.90;;;;;;5001818;28;20171;-76
2022/06/04 03:53:30;;;;;;;8.73;7.93;;;15.80;99.90;;;;;;5017729;28;20177;-76
2022/06/04 03:55:56;;;;;;;9.20;8.40;;;15.60;99.90;;;;;;5017782;28;20263;-76
2022/06/04 03:58:23;;;;;;;9.50;8.70;;;15.60;99.90;;;;;;5017759;28;20201;-76
2022/06/04 04:00:49;;;;;;;9.50;8.53;;;15.60;99.90;;;;;;5002059;28;20236;-76
2022/06/04 04:03:18;;;;;;;15.50;9.93;;;15.60;99.90;;;;;;5001487;28;20186;-76
2022/06/04 04:05:50;;;;;;;26.60;11.73;;;15.50;99.90;;;;;;5033983;28;20218;-76
2022/06/04 04:08:16;;;;;;;12.60;10.57;;;15.40;99.90;;;;;;5018082;28;20170;-76
2022/06/04 04:10:43;;;;;;;11.77;10.33;;;15.40;99.90;;;;;;5034363;28;20202;-76
2022/06/04 04:13:12;;;;;;;11.30;10.30;;;15.40;99.90;;;;;;5033709;28;20174;-76
2022/06/04 04:15:38;;;;;;;10.53;9.47;;;15.50;99.90;;;;;;5033799;28;20627;-76
2022/06/04 04:18:05;;;;;;;9.60;8.70;;;15.60;99.90;;;;;;5017575;28;20175;-76
2022/06/04 04:20:34;;;;;;;9.03;8.20;;;15.70;99.90;;;;;;5017773;28;20182;-76
2022/06/04 04:23:00;;;;;;;14.20;8.30;;;15.70;99.90;;;;;;5033929;28;20313;-76
2022/06/04 04:25:28;;;;;;;10.73;8.87;;;15.80;99.90;;;;;;5033565;28;20202;-76
2022/06/04 04:27:55;;;;;;;9.67;8.63;;;15.80;99.90;;;;;;5001326;28;20539;-76
2022/06/04 04:30:25;;;;;;;9.33;8.43;;;15.90;99.90;;;;;;5017031;28;20181;-76
2022/06/04 04:32:52;;;;;;;8.90;8.10;;;15.90;99.90;;;;;;5033438;28;20647;-76
2022/06/04 04:35:22;;;;;;;9.27;8.47;;;15.90;99.90;;;;;;5017442;28;20708;-76
2022/06/04 04:37:48;;;;;;;16.07;9.10;;;15.90;99.90;;;;;;5033493;28;20206;-76
2022/06/04 04:40:16;;;;;;;11.10;8.53;;;16.00;99.90;;;;;;5017280;28;20261;-76
2022/06/04 04:46:07;;;;;;;21.17;10.20;;;15.90;99.90;;;;;;5034713;28;20256;-77
2022/06/04 04:48:33;;;;;;;13.77;9.87;;;15.70;99.90;;;;;;5033203;28;20201;-77
2022/06/04 04:50:59;;;;;;;26.30;10.30;;;15.60;99.90;;;;;;5016574;28;20242;-76
2022/06/04 04:53:24;;;;;;;11.07;9.53;;;15.70;99.90;;;;;;5033089;28;20232;-76
2022/06/04 04:55:50;;;;;;;10.77;9.70;;;15.70;99.90;;;;;;5033383;28;20195;-76
2022/06/04 04:58:16;;;;;;;12.90;10.60;;;15.80;99.90;;;;;;5000714;28;20210;-77
2022/06/04 05:00:45;;;;;;;12.93;11.63;;;15.80;99.90;;;;;;5016949;28;20182;-77
2022/06/04 05:03:11;;;;;;;12.53;11.33;;;15.80;99.90;;;;;;5034136;28;20178;-76
2022/06/04 05:05:36;;;;;;;14.33;10.80;;;15.70;99.90;;;;;;5033968;28;20632;-76
2022/06/04 05:08:02;;;;;;;18.77;11.87;;;15.80;99.90;;;;;;5016813;28;20285;-77
2022/06/04 05:10:28;;;;;;;13.10;11.90;;;15.70;99.90;;;;;;5033463;28;20220;-77
2022/06/04 05:12:55;;;;;;;19.10;12.07;;;15.80;99.90;;;;;;5034164;28;20166;-77
2022/06/04 05:15:22;;;;;;;13.27;11.87;;;15.80;99.90;;;;;;5016512;28;20194;-77
2022/06/04 05:17:48;;;;;;;13.20;11.83;;;15.90;99.90;;;;;;5000323;28;20182;-76
2022/06/04 05:20:13;;;;;;;12.53;11.33;;;16.00;99.90;;;;;;5033017;28;20236;-76
2022/06/04 05:22:39;;;;;;;8.93;8.03;;;16.00;99.90;;;;;;4999950;28;20273;-76
2022/06/04 05:25:05;;;;;;;8.97;8.17;;;16.10;99.90;;;;;;5032736;28;20197;-76
2022/06/04 05:27:31;;;;;;;11.73;10.63;;;16.40;99.90;;;;;;5032517;28;20217;-76
2022/06/04 05:29:57;;;;;;;12.87;11.60;;;16.50;99.90;;;;;;5016350;28;20257;-76
2022/06/04 05:32:22;;;;;;;8.20;7.50;;;16.50;99.90;;;;;;4999790;28;20170;-76
2022/06/04 05:34:48;;;;;;;8.27;7.47;;;16.60;99.90;;;;;;4999955;28;20174;-77
2022/06/04 05:37:13;;;;;;;10.90;9.90;;;16.90;99.90;;;;;;5015982;28;20660;-76
2022/06/04 05:39:39;;;;;;;9.27;8.07;;;16.90;99.90;;;;;;4999808;28;20201;-76
2022/06/04 05:45:32;;;;;;;11.67;10.47;;;17.20;99.90;;;;;;5033315;28;20264;-76
2022/06/04 05:47:58;;;;;;;12.13;11.03;;;17.20;99.90;;;;;;4999714;28;20162;-76
2022/06/04 05:50:23;;;;;;;12.23;11.13;;;17.20;99.90;;;;;;5015848;28;20182;-76
2022/06/04 05:52:49;;;;;;;12.23;11.03;;;17.10;99.90;;;;;;4999198;28;20174;-76
2022/06/04 05:55:14;;;;;;;12.50;11.40;;;17.10;99.90;;;;;;4999389;28;20232;-76
2022/06/04 05:57:40;;;;;;;13.10;11.90;;;17.00;99.90;;;;;;5015513;28;20198;-76
2022/06/04 06:00:08;;;;;;;13.93;12.53;;;16.80;99.90;;;;;;5015934;28;20539;-76
2022/06/04 06:02:34;;;;;;;12.93;11.73;;;16.70;99.90;;;;;;5031059;28;20273;-76
2022/06/04 06:05:00;;;;;;;11.10;10.10;;;16.70;99.90;;;;;;5015260;28;20712;-76
2022/06/04 06:07:26;;;;;;;13.30;12.00;;;16.80;99.90;;;;;;5015449;28;20190;-76
2022/06/04 06:09:52;;;;;;;12.63;11.43;;;16.90;99.90;;;;;;5015596;28;20182;-76
2022/06/04 06:12:17;;;;;;;13.60;12.40;;;17.10;99.90;;;;;;5015159;28;20193;-76
2022/06/04 06:14:43;;;;;;;13.50;12.20;;;17.10;99.90;;;;;;5015223;28;20182;-76
2022/06/04 06:17:09;;;;;;;11.90;10.90;;;17.10;99.90;;;;;;4999045;28;20278;-76
2022/06/04 06:19:34;;;;;;;13.43;12.23;;;17.10;99.90;;;;;;5031906;28;20182;-76
2022/06/04 06:22:00;;;;;;;14.83;13.27;;;17.20;99.90;;;;;;5031519;28;20174;-76
2022/06/04 06:24:26;;;;;;;13.00;11.90;;;17.20;99.90;;;;;;5015179;28;20264;-76
2022/06/04 06:26:54;;;;;;;11.13;10.10;;;17.20;99.90;;;;;;5015413;28;20194;-76
2022/06/04 06:29:23;;;;;;;11.40;10.40;;;17.20;99.90;;;;;;5015458;28;20189;-76
2022/06/04 06:31:49;;;;;;;12.87;11.77;;;17.30;99.90;;;;;;5031624;28;20171;-76
2022/06/04 06:34:15;;;;;;;12.30;11.30;;;17.50;99.90;;;;;;5031522;28;20224;-76
2022/06/04 06:36:42;;;;;;;11.63;10.53;;;17.60;99.90;;;;;;5015314;28;20198;-76
2022/06/04 06:39:08;;;;;;;11.83;10.83;;;17.70;99.90;;;;;;5031647;28;20178;-76
2022/06/04 06:41:34;;;;;;;11.40;10.47;;;17.90;99.90;;;;;;5014919;28;20181;-76
2022/06/04 06:47:53;;;;;;;10.97;9.87;;;18.40;99.90;;;;;;5032607;28;20154;-76
2022/06/04 06:50:18;;;;;;;12.33;11.27;;;18.60;99.90;;;;;;5031402;28;20175;-76
2022/06/04 06:52:44;;;;;;;11.30;10.30;;;18.80;99.90;;;;;;5015056;28;20535;-76
2022/06/04 06:55:10;;;;;;;10.33;9.10;;;18.80;99.90;;;;;;5014981;28;20202;-76
2022/06/04 06:57:36;;;;;;;9.30;8.50;;;18.90;99.90;;;;;;5032510;28;20201;-76
2022/06/04 07:00:04;;;;;;;10.67;9.70;;;18.90;99.90;;;;;;4998830;28;20186;-76
2022/06/04 07:02:29;;;;;;;10.80;9.70;;;18.80;99.90;;;;;;5014927;28;20205;-76
2022/06/04 07:04:55;;;;;;;9.17;8.27;;;18.70;99.90;;;;;;5014406;28;20239;-76
2022/06/04 07:07:20;;;;;;;9.33;8.53;;;18.80;99.90;;;;;;4998471;28;20182;-75
2022/06/04 07:09:46;;;;;;;9.60;8.80;;;18.90;99.90;;;;;;5014733;28;20290;-75
2022/06/04 07:12:12;;;;;;;9.33;8.40;;;19.00;99.90;;;;;;5014663;28;20202;-75
2022/06/04 07:14:37;;;;;;;9.47;8.67;;;19.00;99.90;;;;;;5017496;28;20720;-76
2022/06/04 07:17:05;;;;;;;8.27;7.57;;;19.10;99.90;;;;;;5034916;28;20304;-76
2022/06/04 07:19:31;;;;;;;8.40;7.67;;;19.20;99.90;;;;;;5018680;28;20183;-77
2022/06/04 07:21:57;;;;;;;7.50;6.90;;;19.30;99.90;;;;;;5034918;28;20246;-77
2022/06/04 07:24:23;;;;;;;8.68;7.88;;;19.50;99.90;;;;;;5034411;28;20256;-77
2022/06/04 07:26:49;;;;;;;8.80;8.00;;;19.60;99.90;;;;;;5018595;28;20202;-77
2022/06/04 07:29:15;;;;;;;8.32;7.63;;;19.60;99.90;;;;;;5035039;28;20179;-77
2022/06/04 07:31:41;;;;;;;7.40;6.80;;;19.70;99.90;;;;;;5034584;28;20265;-77
2022/06/04 07:34:07;;;;;;;8.77;7.97;;;19.70;99.90;;;;;;5034812;28;20177;-77
2022/06/04 07:36:38;;;;;;;6.40;5.65;;;19.70;99.90;;;;;;5018219;28;20198;-77
2022/06/04 07:39:06;;;;;;;8.10;7.50;;;19.70;99.90;;;;;;5034478;28;20178;-77
2022/06/04 07:41:34;;;;;;;7.82;7.13;;;19.90;99.90;;;;;;5002084;28;20261;-77
2022/06/04 07:44:00;;;;;;;7.80;7.13;;;19.90;99.90;;;;;;5034386;28;20182;-77
2022/06/04 07:46:29;;;;;;;7.32;6.72;;;20.00;99.90;;;;;;5018133;28;20214;-77
2022/06/04 07:48:55;;;;;;;6.88;6.30;;;20.20;99.90;;;;;;5018237;28;20270;-77
2022/06/04 07:51:21;;;;;;;7.70;7.00;;;20.50;99.90;;;;;;5018195;28;20548;-77
2022/06/04 07:53:47;;;;;;;7.05;6.18;;;20.60;99.90;;;;;;5017778;28;20170;-77
2022/06/04 07:56:16;;;;;;;6.30;5.80;;;20.70;99.90;;;;;;5034336;28;20198;-77
2022/06/04 07:58:42;;;;;;;7.03;6.43;;;20.90;99.90;;;;;;5034185;28;20177;-77
2022/06/04 08:01:10;;;;;;;7.60;6.90;;;21.00;99.90;;;;;;5018167;28;20257;-77
2022/06/04 08:03:36;;;;;;;6.30;5.72;;;20.80;99.90;;;;;;5034092;28;20177;-77
2022/06/04 08:06:04;;;;;;;6.05;5.47;;;20.90;99.90;;;;;;5017920;28;20234;-77
2022/06/04 08:08:32;;;;;;;6.15;5.65;;;20.90;99.90;;;;;;5034427;28;20175;-77
2022/06/04 08:10:58;;;;;;;5.88;4.78;;;20.90;99.90;;;;;;5002100;28;20575;-77
2022/06/04 08:15:49;;;;;;;5.53;5.03;;;21.00;99.90;;;;;;5034269;28;20285;-77
2022/06/04 08:18:16;;;;;;;5.72;5.18;;;21.10;99.90;;;;;;5001363;28;20269;-77
2022/06/04 08:20:43;;;;;;;5.28;4.82;;;21.20;99.90;;;;;;5017981;28;20178;-77
2022/06/04 08:23:10;;;;;;;5.28;4.80;;;21.20;99.90;;;;;;5001058;28;20209;-77
2022/06/04 08:25:40;;;;;;;5.10;4.70;;;21.30;99.90;;;;;;5016627;28;20210;-76
2022/06/04 08:28:06;;;;;;;4.78;4.38;;;21.30;99.90;;;;;;5034189;28;20266;-77
2022/06/04 08:30:32;;;;;;;5.13;4.65;;;21.40;99.90;;;;;;5017654;28;20170;-77
2022/06/04 08:32:58;;;;;;;4.28;3.88;;;21.30;99.90;;;;;;5017054;28;20201;-77
2022/06/04 08:38:45;;;;;;;5.13;4.40;;;21.40;99.90;;;;;;5035191;28;20154;-77
2022/06/04 08:41:43;;;;;;;4.68;4.28;;;21.40;99.90;;;;;;5033845;28;20178;-77
2022/06/04 08:44:21;;;;;;;4.55;4.22;;;21.40;99.90;;;;;;5033505;28;20545;-77
2022/06/04 08:46:49;;;;;;;4.50;4.15;;;21.30;99.90;;;;;;5033692;28;20186;-77
2022/06/04 08:49:29;;;;;;;4.80;4.40;;;21.30;99.90;;;;;;5033580;28;20171;-77
2022/06/04 08:51:55;;;;;;;4.80;3.75;;;21.30;99.90;;;;;;5017081;28;20167;-77
2022/06/04 09:00:16;;;;;;;4.88;4.47;;;21.50;99.90;;;;;;5033808;28;20301;-77
2022/06/04 09:02:51;;;;;;;4.53;4.13;;;21.50;99.90;;;;;;5033070;28;20166;-77
2022/06/04 09:05:51;;;;;;;4.55;4.15;;;21.60;99.90;;;;;;5034116;28;20221;-76
2022/06/04 09:08:53;;;;;;;4.70;4.30;;;21.70;99.90;;;;;;5033080;28;20217;-77
2022/06/04 09:11:44;;;;;;;4.40;4.10;;;21.90;99.90;;;;;;5033401;28;20166;-77
2022/06/04 09:14:27;;;;;;;4.88;4.25;;;22.00;99.90;;;;;;5033143;28;20165;-77
2022/06/04 09:17:03;;;;;;;5.75;5.20;;;22.10;99.90;;;;;;5034083;28;20190;-77
2022/06/04 09:19:35;;;;;;;4.75;4.38;;;22.10;99.90;;;;;;5034090;28;20249;-77
2022/06/04 09:22:03;;;;;;;4.95;4.43;;;22.20;99.90;;;;;;5033815;28;20169;-77
2022/06/04 09:24:29;;;;;;;5.18;4.72;;;22.20;99.90;;;;;;5016455;28;20302;-77
2022/06/04 09:27:32;;;;;;;4.75;4.20;;;22.30;99.90;;;;;;5016408;28;20246;-77
2022/06/04 09:30:20;;;;;;;7.28;4.80;;;22.30;99.90;;;;;;5032667;28;20163;-77
2022/06/04 09:33:02;;;;;;;4.95;4.47;;;22.40;99.90;;;;;;5032644;28;20499;-77
2022/06/04 09:39:05;;;;;;;4.85;4.38;;;22.40;99.90;;;;;;5034037;28;20150;-77
2022/06/04 09:41:32;;;;;;;4.60;4.30;;;22.50;99.90;;;;;;5032518;28;20233;-77
2022/06/04 09:44:00;;;;;;;4.32;3.92;;;22.50;99.90;;;;;;5032490;28;20178;-77
2022/06/04 09:46:26;;;;;;;4.80;4.40;;;22.70;99.90;;;;;;5016315;28;20210;-77
2022/06/04 09:48:55;;;;;;;3.95;3.65;;;22.80;99.90;;;;;;4999527;28;20197;-77
2022/06/04 09:51:24;;;;;;;4.10;3.75;;;23.00;99.90;;;;;;5033389;28;20174;-76
2022/06/04 09:54:02;;;;;;;4.97;4.53;;;23.20;99.90;;;;;;5015878;28;20711;-77
2022/06/04 09:56:35;;;;;;;4.10;3.80;;;23.40;99.90;;;;;;5032308;28;20205;-77
2022/06/04 09:59:31;;;;;;;4.40;4.07;;;23.60;99.90;;;;;;5032338;28;20186;-77
2022/06/04 10:02:09;;;;;;;4.85;4.35;;;23.70;99.90;;;;;;5030677;28;20178;-77
2022/06/04 10:04:38;;;;;;;5.10;3.90;;;23.70;99.90;;;;;;5032436;28;20189;-77
2022/06/04 10:07:14;;;;;;;4.53;4.13;;;23.70;99.90;;;;;;5031890;28;20221;-77
2022/06/04 10:09:57;;;;;;;5.65;4.63;;;23.60;99.90;;;;;;5015517;28;20180;-77
2022/06/04 10:15:38;;;;;;;4.80;4.30;;;23.50;99.90;;;;;;4995536;28;20285;-77
2022/06/04 10:18:24;;;;;;;4.85;4.30;;;23.70;99.90;;;;;;5033153;28;20165;-77
2022/06/04 10:21:02;;;;;;;4.40;4.10;;;23.80;99.90;;;;;;5031828;28;20166;-77
2022/06/04 10:23:39;;;;;;;4.20;3.90;;;23.80;99.90;;;;;;5031950;28;20169;-77
2022/06/04 10:26:29;;;;;;;4.40;4.10;;;24.00;99.90;;;;;;5031442;28;20202;-77
2022/06/04 10:29:13;;;;;;;4.82;4.43;;;24.10;99.90;;;;;;5033053;28;20205;-77
2022/06/04 10:32:05;;;;;;;4.93;4.53;;;23.90;99.90;;;;;;5031914;28;20174;-77
2022/06/04 10:35:26;;;;;;;4.50;4.10;;;24.10;99.90;;;;;;5031559;28;20174;-77
2022/06/04 10:38:27;;;;;;;4.75;4.32;;;24.00;99.90;;;;;;5031808;28;20188;-77
2022/06/04 10:41:16;;;;;;;4.60;4.20;;;24.20;99.90;;;;;;5006296;28;20182;-77
2022/06/04 10:44:06;;;;;;;4.80;4.40;;;24.20;99.90;;;;;;5031473;28;20167;-77
2022/06/04 10:47:04;;;;;;;4.97;4.10;;;23.90;99.90;;;;;;5032604;28;20275;-77
2022/06/04 10:49:36;;;;;;;4.05;3.75;;;24.00;99.90;;;;;;5033689;28;20183;-77
2022/06/04 10:52:27;;;;;;;4.72;4.32;;;24.20;99.90;;;;;;5032472;28;20155;-77
2022/06/04 10:55:18;;;;;;;4.22;3.92;;;24.40;99.90;;;;;;5031769;28;20174;-77
2022/06/04 10:57:50;;;;;;;4.47;3.88;;;24.60;99.90;;;;;;5031375;28;20186;-77
2022/06/04 11:00:19;;;;;;;4.47;4.00;;;24.70;99.90;;;;;;5031737;28;20238;-77
2022/06/04 11:02:59;;;;;;;4.18;3.78;;;24.90;99.90;;;;;;5032345;28;20167;-77
2022/06/04 11:05:37;;;;;;;5.20;3.80;;;25.20;99.90;;;;;;5032327;28;20278;-77
2022/06/04 11:08:14;;;;;;;4.50;3.92;;;25.40;99.90;;;;;;5032516;28;20186;-77
2022/06/04 11:10:49;;;;;;;4.88;4.05;;;25.30;99.90;;;;;;5031650;28;20173;-77
2022/06/04 11:13:26;;;;;;;4.15;3.85;;;25.40;99.90;;;;;;5031144;28;20182;-77
2022/06/04 11:16:00;;;;;;;3.90;3.60;;;25.40;99.90;;;;;;5031271;28;20236;-76
2022/06/04 11:18:33;;;;;;;3.80;3.60;;;25.40;99.90;;;;;;5031479;28;20201;-76
2022/06/04 11:21:10;;;;;;;4.32;3.95;;;25.70;99.90;;;;;;5031472;28;20166;-77
2022/06/04 11:23:39;;;;;;;4.05;3.67;;;26.00;99.90;;;;;;5032371;28;20700;-77
2022/06/04 11:26:31;;;;;;;3.75;3.47;;;26.20;99.90;;;;;;5030925;28;20203;-77
2022/06/04 11:28:59;;;;;;;4.07;3.70;;;26.10;99.90;;;;;;5031126;28;20166;-76
2022/06/04 11:31:40;;;;;;;3.88;3.60;;;26.30;99.90;;;;;;5031480;28;20175;-77
2022/06/04 11:35:02;;;;;;;3.78;3.50;;;26.70;99.90;;;;;;5030731;28;20162;-77
2022/06/04 11:37:43;;;;;;;3.97;3.67;;;26.70;99.90;;;;;;5030952;28;20171;-77
2022/06/04 11:40:33;;;;;;;3.95;3.40;;;26.30;99.90;;;;;;5031281;28;20170;-77
2022/06/04 11:43:04;;;;;;;4.40;3.30;;;26.00;99.90;;;;;;5030823;28;20269;-77
2022/06/04 11:45:38;;;;;;;3.90;3.60;;;25.90;99.90;;;;;;5015091;28;20352;-76
2022/06/04 11:48:36;;;;;;;3.50;3.30;;;25.80;99.90;;;;;;5030845;28;20200;-77
2022/06/04 11:51:41;;;;;;;3.92;3.03;;;26.20;99.90;;;;;;5031335;28;20204;-77
2022/06/04 11:54:28;;;;;;;3.50;3.28;;;26.50;99.90;;;;;;5031124;28;20185;-77
2022/06/04 11:57:12;;;;;;;3.63;3.33;;;26.70;99.90;;;;;;5031046;28;20712;-76
2022/06/04 11:59:53;;;;;;;3.70;3.40;;;26.90;99.90;;;;;;5030876;28;20253;-77
2022/06/04 12:02:57;;;;;;;3.50;3.20;;;26.80;99.90;;;;;;5034083;28;20166;-77
2022/06/04 12:05:27;;;;;;;3.63;3.30;;;26.40;99.90;;;;;;5034231;28;20224;-77
2022/06/04 12:07:54;;;;;;;3.60;3.30;;;26.00;99.90;;;;;;5034203;28;20166;-77
2022/06/04 12:10:49;;;;;;;4.03;3.67;;;25.50;99.90;;;;;;5001627;28;20261;-77
2022/06/04 12:13:57;;;;;;;3.67;3.38;;;25.30;99.90;;;;;;5034307;28;20258;-77
2022/06/04 12:16:35;;;;;;;3.33;3.05;;;25.20;99.90;;;;;;5034169;28;20248;-77
2022/06/04 12:25:01;;;;;;;3.97;3.53;;;25.00;99.90;;;;;;5034188;28;20197;-77
2022/06/04 12:27:27;;;;;;;3.75;3.35;;;25.20;99.90;;;;;;5034063;28;20216;-77
2022/06/04 12:29:55;;;;;;;4.00;3.60;;;25.50;99.90;;;;;;5035169;28;20177;-77
2022/06/04 12:32:31;;;;;;;3.47;3.20;;;25.60;99.90;;;;;;5017332;28;20178;-77
2022/06/04 12:35:28;;;;;;;3.67;3.30;;;25.70;99.90;;;;;;5033316;28;20241;-77
2022/06/04 12:37:58;;;;;;;3.83;3.45;;;25.60;99.90;;;;;;5034040;28;20175;-77
2022/06/04 12:40:24;;;;;;;3.47;3.20;;;25.50;99.90;;;;;;5034032;28;20242;-77
2022/06/04 12:43:13;;;;;;;3.85;3.55;;;25.80;99.90;;;;;;5033689;28;20178;-77
2022/06/04 12:45:42;;;;;;;3.35;3.10;;;26.20;99.90;;;;;;5034603;28;20204;-77
2022/06/04 12:48:32;;;;;;;3.88;3.35;;;26.30;99.90;;;;;;5034670;28;20201;-77
2022/06/04 12:51:11;;;;;;;3.55;3.25;;;26.60;99.90;;;;;;5033844;28;20170;-77
2022/06/04 12:54:02;;;;;;;3.47;3.17;;;26.80;99.90;;;;;;5033223;28;20159;-77
2022/06/04 12:56:38;;;;;;;3.70;3.40;;;26.80;99.90;;;;;;5017092;28;20293;-77
2022/06/04 12:59:22;;;;;;;3.50;3.30;;;26.70;99.90;;;;;;5001281;28;20178;-77
2022/06/04 13:01:47;;;;;;;3.88;3.40;;;26.60;99.90;;;;;;5033041;28;20574;-76
2022/06/04 13:04:16;;;;;;;3.67;3.42;;;26.30;99.90;;;;;;5033266;28;20232;-77
2022/06/04 13:06:50;;;;;;;4.75;3.38;;;26.20;99.90;;;;;;5033067;28;20209;-76
2022/06/04 13:09:46;;;;;;;3.40;3.20;;;26.10;99.90;;;;;;5016693;28;20652;-77
2022/06/04 13:12:39;;;;;;;3.65;3.42;;;26.10;99.90;;;;;;5032586;28;20173;-77
2022/06/04 13:15:31;;;;;;;3.72;3.40;;;26.20;99.90;;;;;;5024524;28;20245;-77
2022/06/04 13:17:57;;;;;;;4.20;3.63;;;26.20;99.90;;;;;;5026114;28;20182;-77
2022/06/04 13:20:37;;;;;;;4.00;3.60;;;26.00;99.90;;;;;;5034074;28;20170;-76
2022/06/04 13:23:31;;;;;;;3.72;3.42;;;25.90;99.90;;;;;;5033072;28;20261;-77
2022/06/04 13:26:22;;;;;;;5.10;3.50;;;26.00;99.90;;;;;;5032554;28;20206;-77
2022/06/04 13:28:49;;;;;;;3.90;3.60;;;25.90;99.90;;;;;;5032822;28;20177;-77
2022/06/04 13:31:35;;;;;;;4.00;3.70;;;25.80;99.90;;;;;;5032604;28;20174;-77
2022/06/04 13:34:20;;;;;;;3.95;3.58;;;25.80;99.90;;;;;;5015256;28;20332;-77
2022/06/04 13:36:48;;;;;;;3.85;3.55;;;25.80;99.90;;;;;;5032576;28;20201;-77
2022/06/04 13:39:18;;;;;;;4.30;3.90;;;25.50;99.90;;;;;;5016183;28;20558;-76
2022/06/04 13:42:02;;;;;;;4.07;3.63;;;25.50;99.90;;;;;;5016094;28;20185;-76
2022/06/04 13:44:40;;;;;;;4.10;3.80;;;25.60;99.90;;;;;;5033747;28;20233;-77
2022/06/04 13:47:10;;;;;;;4.53;4.13;;;25.60;99.90;;;;;;5033553;28;20186;-77
2022/06/04 13:49:35;;;;;;;4.20;3.90;;;25.80;99.90;;;;;;5033551;28;20174;-77
2022/06/04 13:52:20;;;;;;;4.25;3.95;;;25.90;99.90;;;;;;5032062;28;20170;-76
2022/06/04 13:54:57;;;;;;;4.50;4.03;;;26.00;99.90;;;;;;5032310;28;20649;-76
2022/06/04 13:57:41;;;;;;;4.05;3.72;;;26.00;99.90;;;;;;5032171;28;20639;-76
2022/06/04 14:00:15;;;;;;;4.28;3.88;;;26.20;99.90;;;;;;5015920;28;20205;-76